Time;durP1;ratioP1;P1;durP2;ratioP2;P2;SDS_P1;SDS_P2;PMS_P1;PMS_P2;Temp;Humidity;BMP_temperature;BMP_pressure;BME280_temperature;BME280_humidity;BME280_pressure;Samples;Min_cycle;Max_cycle;Signal;HPM_P1;HPM_P2
2021/01/02 00:02:32;;;;;;;;;;;;;;;9.59;38.13;100563.53;4926245;29;19931;-74
2021/01/02 00:05:10;;;;;;;;;;;;;;;9.59;38.09;100572.31;4922236;29;19928;-75
2021/01/02 00:07:49;;;;;;;;;;;;;;;9.55;37.90;100575.94;4917622;29;19938;-74
2021/01/02 00:10:20;;;;;;;;;;;;;;;9.58;37.76;100569.72;4919833;29;20464;-74
2021/01/02 00:13:02;;;;;;;;;;;;;;;9.57;37.70;100568.84;4922257;29;20336;-75
2021/01/02 00:15:32;;;;;;;;;;;;;;;9.51;38.57;100570.75;4923790;29;19934;-74
2021/01/02 00:18:04;;;;;;;;;;;;;;;9.30;39.42;100567.78;4910858;29;19928;-74
2021/01/02 00:20:49;;;;;;;;;;;;;;;9.21;40.94;100578.56;4920106;29;19998;-74
2021/01/02 00:23:25;;;;;;;;;;;;;;;9.17;41.60;100574.28;4889594;29;20320;-74
2021/01/02 00:25:57;;;;;;;;;;;;;;;9.27;40.80;100574.00;4919669;29;20026;-74
2021/01/02 00:28:29;;;;;;;;;;;;;;;9.34;40.02;100577.34;4922816;29;19931;-74
2021/01/02 00:31:14;;;;;;;;;;;;;;;9.36;39.82;100575.53;4923632;29;20309;-74
2021/01/02 00:34:01;;;;;;;;;;;;;;;9.39;39.27;100575.47;4922328;29;19963;-74
2021/01/02 00:36:33;;;;;;;;;;;;;;;9.42;39.29;100583.31;4917063;29;20401;-74
2021/01/02 00:39:01;;;;;;;;;;;;;;;9.41;39.30;100581.56;4901072;29;20278;-74
2021/01/02 00:41:28;;;;;;;;;;;;;;;9.43;38.81;100585.03;4904591;29;20049;-74
2021/01/02 00:43:56;;;;;;;;;;;;;;;9.44;38.36;100581.50;4925040;29;19937;-74
2021/01/02 00:46:23;;;;;;;;;;;;;;;9.42;38.38;100578.03;4923574;29;19931;-75
2021/01/02 00:48:50;;;;;;;;;;;;;;;9.42;38.25;100585.09;4906007;29;19951;-75
2021/01/02 00:51:20;;;;;;;;;;;;;;;9.42;38.00;100588.59;4921246;29;19935;-75
2021/01/02 00:53:53;;;;;;;;;;;;;;;9.43;38.05;100584.19;4902376;29;20542;-75
2021/01/02 00:56:28;;;;;;;;;;;;;;;9.42;38.26;100591.22;4923388;29;20567;-75
2021/01/02 00:59:12;;;;;;;;;;;;;;;9.43;38.26;100595.59;4910014;29;19935;-75
2021/01/02 01:01:44;;;;;;;;;;;;;;;9.42;37.91;100585.94;4903656;29;19949;-75
2021/01/02 01:04:32;;;;;;;;;;;;;;;9.44;38.09;100596.47;4905011;29;19995;-75
2021/01/02 01:06:59;;;;;;;;;;;;;;;9.44;37.91;100594.72;4884274;29;19931;-75
2021/01/02 01:09:36;;;;;;;;;;;;;;;9.44;37.59;100597.34;4922842;29;19931;-76
2021/01/02 01:12:07;;;;;;;;;;;;;;;9.43;38.05;100598.25;4921077;29;19935;-76
2021/01/02 01:14:35;;;;;;;;;;;;;;;9.43;38.20;100602.69;4923472;29;19938;-75
2021/01/02 01:17:03;;;;;;;;;;;;;;;9.19;39.63;100598.84;4922204;29;19934;-75
2021/01/02 01:19:34;;;;;;;;;;;;;;;9.09;40.90;100608.75;4917511;29;19991;-75
2021/01/02 01:22:02;;;;;;;;;;;;;;;9.03;41.32;100611.53;4917241;29;19959;-75
2021/01/02 01:24:34;;;;;;;;;;;;;;;9.06;42.03;100608.81;4922707;29;19931;-76
2021/01/02 01:27:04;;;;;;;;;;;;;;;9.13;40.63;100610.41;4920947;29;19938;-75
2021/01/02 01:29:40;;;;;;;;;;;;;;;9.19;40.05;100606.75;4912489;29;19931;-75
2021/01/02 01:32:07;;;;;;;;;;;;;;;9.22;39.67;100607.56;4914160;29;19931;-75
2021/01/02 01:34:34;;;;;;;;;;;;;;;9.22;39.43;100612.84;4903366;29;19935;-75
2021/01/02 01:37:03;;;;;;;;;;;;;;;9.24;39.24;100603.09;4904468;29;20026;-75
2021/01/02 01:39:31;;;;;;;;;;;;;;;9.25;39.02;100610.13;4906834;29;19943;-74
2021/01/02 01:41:59;;;;;;;;;;;;;;;9.25;38.77;100606.63;4906795;29;20370;-74
2021/01/02 01:44:50;;;;;;;;;;;;;;;9.26;38.47;100613.66;4909285;29;20006;-74
2021/01/02 01:47:18;;;;;;;;;;;;;;;9.25;38.71;100610.13;4905606;29;20750;-75
2021/01/02 01:50:03;;;;;;;;;;;;;;;9.27;38.51;100610.06;4908655;29;20576;-75
2021/01/02 01:52:36;;;;;;;;;;;;;;;9.28;38.08;100615.34;4875674;29;19974;-75
2021/01/02 01:55:05;;;;;;;;;;;;;;;9.26;38.26;100616.28;4907331;29;20964;-75
2021/01/02 01:57:37;;;;;;;;;;;;;;;9.26;37.93;100619.78;4914829;29;19983;-75
2021/01/02 02:00:09;;;;;;;;;;;;;;;9.26;37.91;100629.47;4908069;29;19935;-75
2021/01/02 02:02:53;;;;;;;;;;;;;;;9.26;37.51;100625.06;4902524;29;19936;-75
2021/01/02 02:05:22;;;;;;;;;;;;;;;9.28;37.80;100630.28;4902551;29;20585;-75
2021/01/02 02:07:58;;;;;;;;;;;;;;;9.25;37.72;100631.22;4890662;29;19927;-75
2021/01/02 02:10:27;;;;;;;;;;;;;;;9.22;37.85;100628.69;4905045;29;19983;-75
2021/01/02 02:12:54;;;;;;;;;;;;;;;9.27;37.97;100634.72;4892197;29;19942;-75
2021/01/02 02:15:23;;;;;;;;;;;;;;;9.22;37.85;100643.63;4907028;29;20050;-75
2021/01/02 02:17:52;;;;;;;;;;;;;;;8.99;39.23;100646.81;4888718;29;20030;-75
2021/01/02 02:20:22;;;;;;;;;;;;;;;8.90;40.70;100647.88;4904516;29;20036;-75
2021/01/02 02:22:59;;;;;;;;;;;;;;;8.84;42.06;100650.63;4891055;29;19935;-75
2021/01/02 02:25:35;;;;;;;;;;;;;;;8.94;41.47;100665.38;4895602;29;19931;-75
2021/01/02 02:28:05;;;;;;;;;;;;;;;9.01;40.77;100658.19;4915962;29;20448;-75
2021/01/02 02:30:34;;;;;;;;;;;;;;;9.06;40.40;100664.22;4889426;29;20021;-75
2021/01/02 02:33:08;;;;;;;;;;;;;;;9.08;40.02;100662.44;4902379;29;23843;-75
2021/01/02 02:35:36;;;;;;;;;;;;;;;9.09;39.79;100659.75;4910375;29;20011;-75
2021/01/02 02:38:03;;;;;;;;;;;;;;;9.11;38.42;100660.59;4909358;29;20531;-75
2021/01/02 02:40:32;;;;;;;;;;;;;;;9.09;38.94;100656.25;4894401;29;20067;-75
2021/01/02 02:43:00;;;;;;;;;;;;;;;9.11;38.79;100662.34;4910758;29;19928;-75
2021/01/02 02:45:29;;;;;;;;;;;;;;;9.12;38.62;100662.31;4892049;29;19935;-75
2021/01/02 02:47:57;;;;;;;;;;;;;;;9.12;38.30;100661.47;4873079;29;19958;-75
2021/01/02 02:50:26;;;;;;;;;;;;;;;9.13;38.26;100671.13;4894314;29;19932;-75
2021/01/02 02:52:56;;;;;;;;;;;;;;;9.12;38.54;100664.97;4891253;29;19937;-75
2021/01/02 02:55:24;;;;;;;;;;;;;;;9.14;37.84;100659.66;4884092;29;20010;-75
2021/01/02 02:57:51;;;;;;;;;;;;;;;9.13;37.96;100666.69;4888192;29;19931;-75
2021/01/02 03:00:18;;;;;;;;;;;;;;;9.12;38.35;100667.59;4885092;29;19991;-75
2021/01/02 03:02:46;;;;;;;;;;;;;;;9.13;37.71;100669.34;4872162;29;19942;-75
2021/01/02 03:05:16;;;;;;;;;;;;;;;9.16;37.83;100670.19;4877436;29;20312;-75
2021/01/02 03:07:44;;;;;;;;;;;;;;;9.17;37.90;100669.28;4892410;29;19932;-75
2021/01/02 03:10:12;;;;;;;;;;;;;;;9.16;37.99;100671.03;4893864;29;20558;-75
2021/01/02 03:12:39;;;;;;;;;;;;;;;9.16;37.91;100676.31;4889144;29;19938;-75
2021/01/02 03:15:07;;;;;;;;;;;;;;;9.13;38.52;100679.91;4886902;29;19936;-75
2021/01/02 03:17:33;;;;;;;;;;;;;;;8.92;39.85;100678.59;4888526;29;19935;-75
2021/01/02 03:20:01;;;;;;;;;;;;;;;8.81;40.83;100677.94;4889714;29;20006;-75
2021/01/02 03:22:29;;;;;;;;;;;;;;;8.78;41.38;100683.31;4872704;29;20003;-75
2021/01/02 03:24:55;;;;;;;;;;;;;;;8.85;41.39;100684.94;4880659;29;19931;-76
2021/01/02 03:27:23;;;;;;;;;;;;;;;8.92;41.05;100681.25;4884868;29;19936;-75
2021/01/02 03:29:50;;;;;;;;;;;;;;;8.97;40.38;100689.94;4886758;29;19987;-75
2021/01/02 03:32:17;;;;;;;;;;;;;;;9.01;39.79;100690.75;4890201;29;19931;-75
2021/01/02 03:34:43;;;;;;;;;;;;;;;9.03;39.33;100688.91;4873673;29;19991;-75
2021/01/02 03:37:11;;;;;;;;;;;;;;;9.06;39.10;100686.22;4882330;29;20018;-75
2021/01/02 03:39:39;;;;;;;;;;;;;;;9.07;38.63;100692.38;4888993;29;19960;-75
2021/01/02 03:42:07;;;;;;;;;;;;;;;9.08;38.85;100699.38;4867149;29;20012;-75
2021/01/02 03:44:34;;;;;;;;;;;;;;;9.11;38.46;100700.19;4888241;29;20876;-75
2021/01/02 03:47:05;;;;;;;;;;;;;;;9.11;38.30;100699.31;4892476;29;20011;-75
2021/01/02 03:49:32;;;;;;;;;;;;;;;9.17;37.84;100690.41;4906422;29;19935;-75
2021/01/02 03:52:00;;;;;;;;;;;;;;;9.18;38.33;100693.00;4904741;29;19931;-75
2021/01/02 03:54:27;;;;;;;;;;;;;;;9.24;38.13;100694.63;4906312;29;20723;-75
2021/01/02 03:56:55;;;;;;;;;;;;;;;9.27;37.85;100697.19;4903911;29;20022;-74
2021/01/02 03:59:22;;;;;;;;;;;;;;;9.32;37.64;100697.09;4906073;29;19954;-74
2021/01/02 04:01:53;;;;;;;;;;;;;;;9.38;37.81;100697.81;4910015;29;19937;-74
2021/01/02 04:04:20;;;;;;;;;;;;;;;9.43;37.41;100690.66;4903627;29;19967;-74
2021/01/02 04:06:46;;;;;;;;;;;;;;;9.46;37.44;100701.13;4909901;29;19935;-75
2021/01/02 04:09:13;;;;;;;;;;;;;;;9.52;37.45;100701.91;4899757;29;20452;-75
2021/01/02 04:11:41;;;;;;;;;;;;;;;9.57;37.59;100705.31;4902644;29;19931;-75
2021/01/02 04:14:09;;;;;;;;;;;;;;;9.56;37.50;100704.44;4905976;29;19998;-75
2021/01/02 04:16:36;;;;;;;;;;;;;;;9.46;38.40;100708.19;4909051;29;19934;-74
2021/01/02 04:19:03;;;;;;;;;;;;;;;9.30;40.02;100705.91;4890599;29;19939;-74
2021/01/02 04:21:30;;;;;;;;;;;;;;;9.28;40.93;100712.13;4891078;29;19941;-74
2021/01/02 04:23:57;;;;;;;;;;;;;;;9.28;40.73;100710.38;4901045;29;19938;-74
2021/01/02 04:26:25;;;;;;;;;;;;;;;9.42;40.39;100714.47;4886315;29;19927;-75
2021/01/02 04:28:52;;;;;;;;;;;;;;;9.51;39.52;100714.25;4890243;29;19962;-74
2021/01/02 04:31:21;;;;;;;;;;;;;;;9.54;39.46;100716.81;4911066;29;19946;-74
2021/01/02 04:33:48;;;;;;;;;;;;;;;9.57;39.16;100713.22;4909001;29;19952;-75
2021/01/02 04:36:16;;;;;;;;;;;;;;;9.61;38.41;100720.16;4910191;29;20015;-75
2021/01/02 04:38:44;;;;;;;;;;;;;;;9.62;38.29;100717.47;4900547;29;20361;-75
2021/01/02 04:41:13;;;;;;;;;;;;;;;9.64;37.98;100725.41;4906970;29;19934;-74
2021/01/02 04:43:41;;;;;;;;;;;;;;;9.68;37.81;100729.69;4910346;29;20297;-75
2021/01/02 04:46:09;;;;;;;;;;;;;;;9.66;37.96;100728.00;4907671;29;19963;-74
2021/01/02 04:48:39;;;;;;;;;;;;;;;9.64;37.71;100733.31;4907769;29;19946;-74
2021/01/02 04:51:07;;;;;;;;;;;;;;;9.69;37.45;100731.44;4904504;29;19971;-74
2021/01/02 04:53:34;;;;;;;;;;;;;;;9.66;37.35;100731.50;4902598;29;19931;-74
2021/01/02 04:56:06;;;;;;;;;;;;;;;9.69;37.41;100733.19;4909263;29;19935;-74
2021/01/02 04:58:35;;;;;;;;;;;;;;;9.70;37.65;100740.22;4908643;29;19942;-74
2021/01/02 05:01:03;;;;;;;;;;;;;;;9.70;37.32;100742.88;4911115;29;19933;-74
2021/01/02 05:03:30;;;;;;;;;;;;;;;9.70;37.43;100743.72;4907213;29;19943;-74
2021/01/02 05:05:58;;;;;;;;;;;;;;;9.70;37.45;100740.22;4903106;29;19931;-74
2021/01/02 05:08:25;;;;;;;;;;;;;;;9.67;37.00;100737.66;4903308;29;19990;-75
2021/01/02 05:10:56;;;;;;;;;;;;;;;9.68;37.59;100744.66;4908205;29;19959;-75
2021/01/02 05:13:27;;;;;;;;;;;;;;;9.69;37.50;100749.94;4907267;29;19990;-74
2021/01/02 05:15:55;;;;;;;;;;;;;;;9.58;38.58;100755.44;4909158;29;19954;-75
2021/01/02 05:18:23;;;;;;;;;;;;;;;9.44;39.34;100762.81;4906294;29;20041;-75
2021/01/02 05:20:50;;;;;;;;;;;;;;;9.35;40.78;100763.00;4900327;29;19994;-75
2021/01/02 05:23:17;;;;;;;;;;;;;;;9.30;41.24;100761.34;4903848;29;19931;-74
2021/01/02 05:25:44;;;;;;;;;;;;;;;9.43;40.39;100775.16;4908236;29;19938;-74
2021/01/02 05:28:16;;;;;;;;;;;;;;;9.50;39.83;100777.66;4900240;29;19938;-75
2021/01/02 05:30:42;;;;;;;;;;;;;;;9.54;39.17;100774.06;4917320;29;19931;-74
2021/01/02 05:33:10;;;;;;;;;;;;;;;9.57;38.97;100779.25;4917668;29;20022;-74
2021/01/02 05:35:39;;;;;;;;;;;;;;;9.58;38.86;100783.63;4911972;29;19962;-74
2021/01/02 05:38:16;;;;;;;;;;;;;;;9.58;38.37;100795.06;4889188;29;20002;-74
2021/01/02 05:40:45;;;;;;;;;;;;;;;9.60;38.43;100792.38;4908020;29;19927;-74
2021/01/02 05:43:13;;;;;;;;;;;;;;;9.58;37.96;100795.06;4908425;29;19935;-75
2021/01/02 05:45:40;;;;;;;;;;;;;;;9.60;38.31;100793.25;4907579;29;19979;-74
2021/01/02 05:48:14;;;;;;;;;;;;;;;9.60;37.72;100803.84;4888360;29;19942;-74
2021/01/02 05:50:52;;;;;;;;;;;;;;;9.62;37.28;100798.50;4902850;29;20385;-75
2021/01/02 05:53:21;;;;;;;;;;;;;;;9.60;37.86;100793.25;4907725;29;20456;-74
2021/01/02 05:55:57;;;;;;;;;;;;;;;9.60;37.09;100803.84;4892092;29;19931;-74
2021/01/02 05:58:25;;;;;;;;;;;;;;;9.59;37.61;100811.78;4906506;29;19938;-74
2021/01/02 06:01:02;;;;;;;;;;;;;;;9.59;37.23;100806.50;4913103;29;19942;-74
2021/01/02 06:03:29;;;;;;;;;;;;;;;9.59;37.57;100812.66;4887914;29;19969;-74
2021/01/02 06:05:57;;;;;;;;;;;;;;;9.60;37.78;100814.41;4904580;29;19936;-75
2021/01/02 06:08:29;;;;;;;;;;;;;;;9.60;37.73;100826.72;4890154;29;19950;-74
2021/01/02 06:10:59;;;;;;;;;;;;;;;9.61;37.02;100828.47;4907709;29;19934;-75
2021/01/02 06:13:27;;;;;;;;;;;;;;;9.59;37.57;100819.72;4910344;29;19983;-74
2021/01/02 06:15:57;;;;;;;;;;;;;;;9.48;38.08;100830.50;4904273;29;19955;-74
2021/01/02 06:18:23;;;;;;;;;;;;;;;9.29;39.86;100832.66;4886115;29;20519;-74
2021/01/02 06:20:51;;;;;;;;;;;;;;;9.23;40.45;100838.94;4888664;29;19934;-74
2021/01/02 06:23:18;;;;;;;;;;;;;;;9.21;41.12;100842.53;4908997;29;20450;-75
2021/01/02 06:25:46;;;;;;;;;;;;;;;9.29;40.47;100845.88;4909341;29;19998;-74
2021/01/02 06:28:18;;;;;;;;;;;;;;;9.35;40.10;100843.09;4890311;29;19941;-74
2021/01/02 06:30:46;;;;;;;;;;;;;;;9.41;39.49;100852.66;4900595;29;20680;-75
2021/01/02 06:33:16;;;;;;;;;;;;;;;9.42;38.75;100860.53;4885181;29;19939;-75
2021/01/02 06:35:43;;;;;;;;;;;;;;;9.46;38.35;100864.00;4904182;29;20965;-74
2021/01/02 06:38:11;;;;;;;;;;;;;;;9.47;38.37;100860.47;4905296;29;19966;-75
2021/01/02 06:40:39;;;;;;;;;;;;;;;9.45;38.06;100868.41;4905220;29;19958;-75
2021/01/02 06:43:11;;;;;;;;;;;;;;;9.47;37.61;100871.03;4890296;29;19937;-74
2021/01/02 06:46:00;;;;;;;;;;;;;;;9.47;37.83;100871.03;4886410;29;19935;-74
2021/01/02 06:48:41;;;;;;;;;;;;;;;9.45;37.89;100872.81;4897391;29;19939;-74
2021/01/02 06:51:28;;;;;;;;;;;;;;;9.45;37.86;100878.09;4904241;29;19962;-74
2021/01/02 06:53:55;;;;;;;;;;;;;;;9.46;37.55;100872.78;4904591;29;19935;-74
2021/01/02 06:56:35;;;;;;;;;;;;;;;9.47;37.69;100876.31;4889416;29;20207;-74
2021/01/02 06:59:02;;;;;;;;;;;;;;;9.48;37.44;100880.66;4901247;29;19957;-74
2021/01/02 07:01:47;;;;;;;;;;;;;;;9.46;37.38;100880.69;4906976;29;19938;-74
2021/01/02 07:04:15;;;;;;;;;;;;;;;9.45;37.19;100880.75;4887441;29;19991;-74
2021/01/02 07:06:43;;;;;;;;;;;;;;;9.47;37.14;100882.44;4906686;29;19958;-74
2021/01/02 07:09:26;;;;;;;;;;;;;;;9.44;37.25;100886.91;4905123;29;19935;-74
2021/01/02 07:12:08;;;;;;;;;;;;;;;9.44;37.29;100892.19;4907068;29;19947;-74
2021/01/02 07:14:35;;;;;;;;;;;;;;;9.41;37.34;100895.75;4899979;29;19931;-75
2021/01/02 07:17:03;;;;;;;;;;;;;;;9.23;38.29;100891.75;4887245;29;19946;-74
2021/01/02 07:19:33;;;;;;;;;;;;;;;9.07;39.97;100888.50;4905778;29;19990;-75
2021/01/02 07:22:02;;;;;;;;;;;;;;;9.05;40.98;100900.00;4890464;29;19938;-78
2021/01/02 07:24:30;;;;;;;;;;;;;;;9.31;43.21;100899.50;4913718;29;19931;-77
2021/01/02 07:26:58;;;;;;;;;;;;;;;9.33;41.83;100895.06;4889660;29;20348;-76
2021/01/02 07:29:26;;;;;;;;;;;;;;;9.33;41.03;100897.69;4886312;29;19935;-77
2021/01/02 07:31:53;;;;;;;;;;;;;;;9.31;40.58;100907.41;4912118;29;19935;-76
2021/01/02 07:34:21;;;;;;;;;;;;;;;9.34;40.04;100910.00;4906386;29;19956;-78
2021/01/02 07:36:49;;;;;;;;;;;;;;;9.35;39.82;100909.13;4891848;29;19941;-78
2021/01/02 07:39:18;;;;;;;;;;;;;;;9.35;38.93;100924.06;4904049;29;19955;-76
2021/01/02 07:41:45;;;;;;;;;;;;;;;9.34;39.01;100927.59;4906475;29;19998;-78
2021/01/02 07:51:25;;;;;;;;;;;;;;;9.35;38.01;100940.81;4861732;29;19931;-76
2021/01/02 07:54:09;;;;;;;;;;;;;;;9.31;38.18;100944.38;4909604;29;19959;-78
2021/01/02 07:59:42;;;;;;;;;;;;;;;9.34;37.87;100948.72;4905816;29;19935;-75
2021/01/02 08:02:29;;;;;;;;;;;;;;;9.35;37.52;100948.72;4904733;29;19937;-78
2021/01/02 08:04:56;;;;;;;;;;;;;;;9.35;37.92;100953.09;4893272;29;20011;-78
2021/01/02 08:07:23;;;;;;;;;;;;;;;9.37;37.95;100967.16;4902077;29;20034;-75
2021/01/02 08:09:51;;;;;;;;;;;;;;;9.36;37.41;100971.56;4906402;29;19935;-78
2021/01/02 08:12:19;;;;;;;;;;;;;;;9.36;37.61;100974.19;4906687;29;19935;-77
2021/01/02 08:14:47;;;;;;;;;;;;;;;9.33;38.00;100979.53;4910847;29;19962;-77
2021/01/02 08:17:17;;;;;;;;;;;;;;;9.13;39.45;100977.28;4910446;29;19963;-78
2021/01/02 08:19:54;;;;;;;;;;;;;;;9.00;40.92;100976.63;4908614;29;19990;-77
2021/01/02 08:22:28;;;;;;;;;;;;;;;8.97;41.51;100985.44;4906828;29;20740;-75
2021/01/02 08:24:56;;;;;;;;;;;;;;;9.05;40.92;100985.31;4904988;29;19935;-75
2021/01/02 08:27:24;;;;;;;;;;;;;;;9.13;39.74;100985.19;4886779;29;19939;-75
2021/01/02 08:29:53;;;;;;;;;;;;;;;9.20;39.41;100980.69;4907658;29;19932;-77
2021/01/02 08:32:21;;;;;;;;;;;;;;;9.24;39.28;100991.13;4906953;29;19938;-78
2021/01/02 08:38:10;;;;;;;;;;;;;;;9.29;38.33;101002.47;4958457;23;19931;-76
2021/01/02 08:40:49;;;;;;;;;;;;;;;9.29;37.81;100997.19;4897314;29;20313;-76
2021/01/02 08:46:28;;;;;;;;;;;;;;;10.25;49.80;101012.94;4903072;29;19983;-76
2021/01/02 08:48:55;;;;;;;;;;;;;;;10.03;48.96;101009.88;4907329;29;19941;-75
2021/01/02 08:51:22;;;;;;;;;;;;;;;10.00;48.43;101018.75;4905175;29;19931;-76
2021/01/02 08:53:51;;;;;;;;;;;;;;;9.95;48.09;101010.03;4901145;29;19999;-75
2021/01/02 08:56:25;;;;;;;;;;;;;;;9.86;46.51;101018.16;4902046;29;19939;-75
2021/01/02 08:58:52;;;;;;;;;;;;;;;9.83;45.82;101018.22;4891806;29;19938;-75
2021/01/02 09:01:20;;;;;;;;;;;;;;;9.77;44.52;101021.84;4890932;29;19937;-75
2021/01/02 09:03:47;;;;;;;;;;;;;;;9.76;44.24;101028.06;4889530;29;19942;-75
2021/01/02 09:06:18;;;;;;;;;;;;;;;9.77;43.20;101035.06;4889550;29;19931;-75
2021/01/02 09:08:58;;;;;;;;;;;;;;;9.76;42.93;101030.69;4896042;29;19998;-75
2021/01/02 09:11:26;;;;;;;;;;;;;;;9.77;42.46;101035.94;4906434;29;19975;-75
2021/01/02 09:14:06;;;;;;;;;;;;;;;9.76;41.76;101036.84;4910904;29;19986;-75
2021/01/02 09:16:33;;;;;;;;;;;;;;;9.60;42.76;101038.00;4906555;29;19943;-75
2021/01/02 09:19:02;;;;;;;;;;;;;;;9.43;43.85;101038.34;4907800;29;19935;-75
2021/01/02 09:21:29;;;;;;;;;;;;;;;9.36;44.19;101042.84;4886575;29;20039;-75
2021/01/02 09:23:59;;;;;;;;;;;;;;;9.38;44.68;101046.34;4890809;29;19962;-76
2021/01/02 09:26:28;;;;;;;;;;;;;;;9.49;43.53;101048.78;4910653;29;19970;-75
2021/01/02 09:28:56;;;;;;;;;;;;;;;9.55;42.44;101053.97;4907299;29;20065;-76
2021/01/02 09:31:25;;;;;;;;;;;;;;;9.62;41.90;101060.00;4906683;29;19931;-75
2021/01/02 09:33:52;;;;;;;;;;;;;;;9.64;41.16;101063.50;4912961;29;20656;-76
2021/01/02 09:36:21;;;;;;;;;;;;;;;9.66;40.89;101055.53;4913199;29;20042;-75
2021/01/02 09:38:49;;;;;;;;;;;;;;;9.75;40.13;101069.44;4900429;29;19966;-76
2021/01/02 09:41:18;;;;;;;;;;;;;;;9.78;39.24;101072.03;4906923;29;20558;-75
2021/01/02 09:43:45;;;;;;;;;;;;;;;9.91;38.95;101079.72;4904836;29;19942;-74
2021/01/02 09:46:16;;;;;;;;;;;;;;;10.07;38.27;101077.63;4889924;29;20027;-74
2021/01/02 09:48:44;;;;;;;;;;;;;;;10.22;38.39;101073.84;4905114;29;20357;-75
2021/01/02 09:51:11;;;;;;;;;;;;;;;10.29;38.10;101084.22;4900884;29;19998;-74
2021/01/02 09:53:39;;;;;;;;;;;;;;;10.38;37.51;101077.06;4898189;29;19942;-75
2021/01/02 09:56:06;;;;;;;;;;;;;;;10.54;37.12;101080.22;4892220;29;19934;-74
2021/01/02 09:58:34;;;;;;;;;;;;;;;10.61;36.65;101080.06;4905311;29;19978;-75
2021/01/02 10:01:01;;;;;;;;;;;;;;;10.57;36.51;101086.34;4902906;29;19936;-74
2021/01/02 10:03:28;;;;;;;;;;;;;;;10.54;37.02;101091.69;4888571;29;20301;-75
2021/01/02 10:05:55;;;;;;;;;;;;;;;10.53;37.00;101089.97;4886669;29;19958;-74
2021/01/02 10:08:23;;;;;;;;;;;;;;;10.49;37.04;101090.03;4900262;29;19959;-75
2021/01/02 10:10:50;;;;;;;;;;;;;;;10.43;37.06;101093.69;4906310;29;19979;-74
2021/01/02 10:13:19;;;;;;;;;;;;;;;10.40;37.17;101092.00;4898411;29;19939;-77
2021/01/02 10:15:47;;;;;;;;;;;;;;;10.32;37.51;101098.28;4889274;29;19978;-75
2021/01/02 10:18:14;;;;;;;;;;;;;;;10.06;39.19;101105.88;4886037;29;19982;-75
2021/01/02 10:20:41;;;;;;;;;;;;;;;9.95;39.65;101099.91;4898875;29;20411;-76
2021/01/02 10:23:09;;;;;;;;;;;;;;;9.90;40.48;101107.94;4903101;29;19931;-74
2021/01/02 10:25:35;;;;;;;;;;;;;;;10.05;40.20;101112.03;4906161;29;20020;-76
2021/01/02 10:28:03;;;;;;;;;;;;;;;10.19;39.19;101114.44;4889699;29;19974;-75
2021/01/02 10:30:30;;;;;;;;;;;;;;;10.31;38.38;101113.31;4907342;29;19971;-76
2021/01/02 10:32:58;;;;;;;;;;;;;;;10.39;38.28;101114.03;4906758;29;20488;-76
2021/01/02 10:35:25;;;;;;;;;;;;;;;10.46;37.16;101128.00;4884813;29;20467;-76
2021/01/02 10:37:53;;;;;;;;;;;;;;;10.50;37.30;101121.75;4902783;29;19931;-76
2021/01/02 10:40:20;;;;;;;;;;;;;;;10.46;37.29;101126.22;4903386;29;19931;-76
2021/01/02 10:42:47;;;;;;;;;;;;;;;10.45;36.99;101123.63;4911226;29;19981;-77
2021/01/02 10:54:44;;;;;;;;;;;;;;;10.44;36.80;101121.88;4820784;29;19941;-78
2021/01/02 10:57:12;;;;;;;;;;;;;;;10.40;36.46;101120.19;4833107;29;19947;-76
2021/01/02 10:59:51;;;;;;;;;;;;;;;10.41;36.55;101122.84;4834860;29;19936;-77
2021/01/02 11:08:51;;;;;;;;;;;;;;;10.49;36.55;101119.13;4946569;29;19935;-77
2021/01/02 11:11:42;;;;;;;;;;;;;;;10.57;36.48;101128.66;4946733;28;19949;-75
2021/01/02 11:14:54;;;;;;;;;;;;;;;10.57;36.19;101117.19;4947449;29;20065;-74
2021/01/02 11:17:22;;;;;;;;;;;;;;;10.36;37.92;101118.50;4942967;29;19976;-74
2021/01/02 11:19:49;;;;;;;;;;;;;;;10.20;38.79;101129.38;4923160;29;20470;-77
2021/01/02 11:22:27;;;;;;;;;;;;;;;10.14;39.98;101129.50;4928244;29;20670;-75
2021/01/02 11:25:06;;;;;;;;;;;;;;;10.24;39.59;101119.59;4926554;29;19945;-75
2021/01/02 11:27:35;;;;;;;;;;;;;;;10.35;38.44;101122.94;4926563;29;20215;-75
2021/01/02 11:30:11;;;;;;;;;;;;;;;10.42;38.40;101127.19;4941690;28;19962;-76
2021/01/02 11:32:38;;;;;;;;;;;;;;;10.45;37.49;101131.56;4941716;28;20425;-75
2021/01/02 11:35:06;;;;;;;;;;;;;;;10.46;37.67;101128.00;4943120;29;20002;-76
2021/01/02 11:37:33;;;;;;;;;;;;;;;10.46;37.59;101130.66;4923678;29;19954;-75
2021/01/02 11:40:21;;;;;;;;;;;;;;;10.43;37.07;101131.59;4925340;29;19938;-79
2021/01/02 11:42:50;;;;;;;;;;;;;;;10.43;37.37;101139.53;4928695;29;19950;-76
2021/01/02 11:45:18;;;;;;;;;;;;;;;10.42;37.11;101144.84;4943596;29;19935;-75
2021/01/02 11:47:45;;;;;;;;;;;;;;;10.42;37.00;101152.78;4943359;28;19954;-76
2021/01/02 11:50:12;;;;;;;;;;;;;;;10.44;36.58;101143.03;4943573;29;19931;-76
2021/01/02 11:52:40;;;;;;;;;;;;;;;10.46;36.18;101143.88;4927692;29;19961;-75
2021/01/02 11:55:07;;;;;;;;;;;;;;;10.48;36.68;101138.56;4944589;28;19953;-76
2021/01/02 11:57:35;;;;;;;;;;;;;;;10.52;36.08;101141.13;4943171;28;20194;-76
2021/01/02 12:00:05;;;;;;;;;;;;;;;10.52;36.37;101145.50;4943016;29;19930;-76
2021/01/02 12:02:34;;;;;;;;;;;;;;;10.55;35.94;101138.41;4942114;29;20292;-78
2021/01/02 12:05:02;;;;;;;;;;;;;;;10.56;36.21;101145.44;4930380;29;19934;-77
2021/01/02 12:07:30;;;;;;;;;;;;;;;10.59;35.80;101148.00;4944149;28;20466;-78
2021/01/02 12:09:57;;;;;;;;;;;;;;;10.59;35.72;101142.72;4939985;29;19935;-78
2021/01/02 12:12:24;;;;;;;;;;;;;;;10.66;35.92;101142.59;4928323;29;20056;-78
2021/01/02 12:14:52;;;;;;;;;;;;;;;10.66;36.08;101148.75;4938036;29;20475;-78
2021/01/02 12:17:20;;;;;;;;;;;;;;;10.46;37.19;101146.53;4943381;29;19989;-78
2021/01/02 12:19:47;;;;;;;;;;;;;;;10.29;38.56;101149.47;4942715;29;19934;-78
2021/01/02 12:22:14;;;;;;;;;;;;;;;10.22;39.48;101143.44;4925821;29;19931;-77
2021/01/02 12:24:42;;;;;;;;;;;;;;;10.27;39.18;101148.66;4928762;29;19970;-78
2021/01/02 12:27:10;;;;;;;;;;;;;;;10.38;38.78;101145.81;4923049;29;19935;-78
2021/01/02 12:29:37;;;;;;;;;;;;;;;10.46;38.00;101150.03;4932408;29;19938;-78
2021/01/02 12:32:07;;;;;;;;;;;;;;;10.48;37.87;101155.31;4939663;29;19938;-77
2021/01/02 12:34:35;;;;;;;;;;;;;;;10.49;37.31;101157.03;4926883;29;19942;-78
2021/01/02 12:37:03;;;;;;;;;;;;;;;10.46;36.86;101167.69;4944247;29;20001;-77
2021/01/02 12:39:36;;;;;;;;;;;;;;;10.50;37.75;101164.06;4942288;29;19930;-78
2021/01/02 12:42:04;;;;;;;;;;;;;;;10.52;37.74;101162.28;4926627;29;19950;-77
2021/01/02 12:44:31;;;;;;;;;;;;;;;10.53;37.14;101163.13;4939672;28;19935;-78
2021/01/02 12:47:00;;;;;;;;;;;;;;;10.54;37.22;101163.09;4927631;29;19930;-77
2021/01/02 12:49:29;;;;;;;;;;;;;;;10.50;36.81;101171.16;4944135;29;20161;-79
2021/01/02 12:52:09;;;;;;;;;;;;;;;10.46;36.41;101179.13;4942290;29;19945;-77
2021/01/02 12:54:54;;;;;;;;;;;;;;;10.44;36.47;101180.06;4943189;29;20580;-77
2021/01/02 12:57:30;;;;;;;;;;;;;;;10.41;36.81;101182.78;4935733;29;19942;-78
2021/01/02 12:59:58;;;;;;;;;;;;;;;10.38;36.27;101183.69;4941335;29;19958;-76
2021/01/02 13:02:25;;;;;;;;;;;;;;;10.38;36.29;101186.34;4940741;28;19926;-76
2021/01/02 13:04:53;;;;;;;;;;;;;;;10.37;36.26;101184.59;4924401;28;20449;-75
2021/01/02 13:07:21;;;;;;;;;;;;;;;10.38;36.02;101182.84;4944505;28;19965;-75
2021/01/02 13:09:49;;;;;;;;;;;;;;;10.38;36.13;101183.69;4928879;29;19934;-76
2021/01/02 13:12:18;;;;;;;;;;;;;;;10.39;36.31;101188.09;4924115;29;19934;-76
2021/01/02 13:14:45;;;;;;;;;;;;;;;10.40;36.55;101189.84;4944283;29;19926;-75
2021/01/02 13:17:13;;;;;;;;;;;;;;;10.23;37.64;101189.25;4941439;29;21300;-75
2021/01/02 13:19:43;;;;;;;;;;;;;;;10.08;39.23;101201.84;4938627;29;20336;-75
2021/01/02 13:22:12;;;;;;;;;;;;;;;10.03;39.86;101203.69;4942084;28;19934;-75
2021/01/02 13:24:40;;;;;;;;;;;;;;;10.07;39.64;101209.81;4940505;29;19938;-75
2021/01/02 13:27:08;;;;;;;;;;;;;;;10.18;39.06;101207.84;4932655;29;20081;-75
2021/01/02 13:29:36;;;;;;;;;;;;;;;10.22;38.19;101200.75;4931509;29;20783;-75
2021/01/02 13:32:04;;;;;;;;;;;;;;;10.26;37.94;101205.94;4952259;29;19934;-74